Gettysburg, SD

19:56 CDT le 29 juillet 2014 (GMT -0500)
Aberdeen Regional (KABR) Alt. 1299 ft | 45.44 °N, 98.41 °W | Change Station

Current weather conditions updated 1 hour ago

Clear
Ciel dégagé
75 ° F
Paraît 75 ° F
N
8
Vent Variable Vent de NNE

Demain il est prévu de faire plus chaud qu’aujourd’hui.

Aujourd'hui
Haut(e) -- | Bas -- ° F
--% Risque de précip.
Hier
Haut(e) -- | Bas -- ° F
Precip. -- pouce
6:21 AM 9:10 PM
Lune montante, 8% visible
Pression 30.12 pouce
Visibilité 10.0 Miles terrestres
Nuages Ciel dégagé
Point de rosée 52 ° F
Humidité 44%
Précipitations 0.00 pouce
Profondeur de la couche neigeuse Non disponible.
UV 2 sur 12
Pollen 6.40 sur 12
Qualité de l'air Non disponible.
Flu Activity Non disponible.
METAR KABR 292353Z AUTO 03007KT 10SM CLR 24/11 A3012 RMK AO2 SLP199 T02390111 10250 20228 58012

More Conditions Fewer Conditions

Pression 30.12 pouce
Visibilité 10.0 Miles terrestres
Nuages Ciel dégagé
Point de rosée 52 ° F
Humidité 44%
Précipitations 0.00 pouce
Profondeur de la couche neigeuse Non disponible.
UV 2 sur 12
Pollen 6.40 sur 12
Qualité de l'air Non disponible.
Flu Activity Non disponible.
METAR KABR 292353Z AUTO 03007KT 10SM CLR 24/11 A3012 RMK AO2 SLP199 T02390111 10250 20228 58012

More Conditions Fewer Conditions

10-Day Weather Forecast

Almanac

Astronomie

Jul. 29, 2014 Lever Coucher
Temps réel 06:21 CDT 21:10 CDT
Crépuscule civil 05:47 CDT 21:44 CDT
Crépuscule nautique 05:04 CDT 22:27 CDT
Crépuscule astronomique 04:13 CDT 23:17 CDT
Lune 09:09 CDT (7/29) 22:12 CDT (7/29)
Durée de lumière visible 15h 56m
Longueur du jour
14h 48m
Tomorrow will be 2m 19s shorter.
Lune montante, 8% of the Moon is Illuminated
Aujourd'hui
Lune montante
août 3
Premier quartier
août 10
Pleine lune
août 17
Dernier quartier
août 25
Nouveau

Extrêmes aujourd'hui

State Highs State Lows

Community

WunderPhotos

Upload Photos

1,738,924 Photos téléchargées !

Nearby

Épaisseur de neige

Station Depth Altitude
Blind Park 0 in 6890 ft

Activité sismique

Ville Distance Mag. Time & Date
No recent earthquake activity has been reported nearby.
Minimum magnitude displayed is 2.5.

Températures des eaux côtières

Lieu Température
Aucun rapport de station

Stations météo à proximité

Emplacement de la station Température indice de chaleur Point de rosée Humidité Vent Precip. Alt. Mise à jour Type
NonFedAWOS GETTYSBURG , Gettysburg, SD 75 ° F 77 ° F 61 ° F 61% Nord  à  5 mph 0.00 pouce / hr 2061 ft 6:55 PM CDT MADIS
Hoven, SD 75.0 ° F 77 ° F 42 ° F 31% ESE  à  0.0 mph 0.00 pouce / hr 1877 ft 7:50 PM CDT Normal

Show More Stations Show Fewer Stations